Time;durP1;ratioP1;P1;durP2;ratioP2;P2;SDS_P1;SDS_P2;PMS_P1;PMS_P2;Temp;Humidity;BMP_temperature;BMP_pressure;BME280_temperature;BME280_humidity;BME280_pressure;Samples;Min_cycle;Max_cycle;Signal;HPM_P1;HPM_P2
2021/04/30 00:02:02;;;;;;;8.05;6.28;;;;;;;10.99;72.74;98832.15;233752;1173;115447;-68
2021/04/30 00:07:07;;;;;;;8.45;7.58;;;;;;;10.98;72.51;98846.55;233509;1173;116156;-67
2021/04/30 00:12:12;;;;;;;10.08;7.75;;;;;;;10.92;72.67;98850.23;234502;1173;116050;-65
2021/04/30 00:17:16;;;;;;;7.93;7.10;;;;;;;10.92;73.04;98836.11;233127;1174;116258;-68
2021/04/30 00:22:19;;;;;;;8.60;7.70;;;;;;;10.96;73.12;98862.00;234002;1173;115557;-66
2021/04/30 00:27:22;;;;;;;10.98;7.05;;;;;;;10.95;72.15;98852.39;235238;1173;115198;-63
2021/04/30 00:32:26;;;;;;;10.15;8.30;;;;;;;10.92;72.93;98852.91;234683;1173;115382;-65
2021/04/30 00:37:30;;;;;;;10.70;8.40;;;;;;;10.94;73.39;98845.45;234230;1172;115811;-68
2021/04/30 00:42:33;;;;;;;10.35;9.00;;;;;;;11.01;73.13;98848.67;233779;1173;116144;-68
2021/04/30 00:47:38;;;;;;;11.53;9.48;;;;;;;11.07;73.39;98857.50;233943;1174;115499;-67
2021/04/30 00:52:41;;;;;;;10.97;8.37;;;;;;;11.04;73.12;98869.48;233867;1173;116766;-65
2021/04/30 00:57:57;;;;;;;11.27;9.40;;;;;;;11.06;73.26;98875.37;233389;1173;115904;-65
2021/04/30 01:03:05;;;;;;;9.30;7.95;;;;;;;11.07;73.12;98873.50;233467;1173;118041;-64
2021/04/30 01:08:08;;;;;;;10.50;8.40;;;;;;;10.99;73.37;98874.82;234121;1173;115038;-65
2021/04/30 01:13:15;;;;;;;11.48;9.68;;;;;;;10.92;72.82;98868.91;233529;1172;116495;-65
2021/04/30 01:18:18;;;;;;;10.10;8.00;;;;;;;10.78;72.84;98867.73;232914;1174;115234;-65
2021/04/30 01:23:21;;;;;;;9.25;8.38;;;;;;;10.65;73.17;98876.20;233531;1168;115233;-66
2021/04/30 01:28:24;;;;;;;10.77;8.37;;;;;;;10.59;73.04;98869.22;233061;1174;115032;-64
2021/04/30 01:33:27;;;;;;;11.47;8.63;;;;;;;10.52;73.37;98884.61;232478;1173;116957;-65
2021/04/30 01:38:30;;;;;;;8.90;8.00;;;;;;;10.40;73.75;98890.91;232606;1173;114849;-66
2021/04/30 01:43:34;;;;;;;9.83;8.53;;;;;;;10.28;73.57;98898.28;233384;1173;115416;-66
2021/04/30 01:48:37;;;;;;;8.27;7.47;;;;;;;10.17;73.05;98891.20;233782;1173;115185;-65
2021/04/30 01:53:40;;;;;;;10.40;9.30;;;;;;;10.07;72.87;98889.28;233993;1173;116064;-63
2021/04/30 01:58:45;;;;;;;8.18;6.95;;;;;;;9.91;73.55;98894.69;233483;1173;115891;-65
2021/04/30 02:03:47;;;;;;;8.13;7.25;;;;;;;9.87;73.64;98891.72;234462;1173;115505;-67
2021/04/30 02:08:51;;;;;;;11.10;7.90;;;;;;;9.75;72.87;98889.21;233925;1173;115343;-65
2021/04/30 02:13:54;;;;;;;9.03;8.08;;;;;;;9.59;73.75;98884.76;234682;1174;115703;-65
2021/04/30 02:18:57;;;;;;;12.13;8.98;;;;;;;9.49;73.75;98889.15;233788;1173;115733;-66
2021/04/30 02:24:00;;;;;;;9.70;8.03;;;;;;;9.49;73.40;98897.94;232646;1173;115631;-65
2021/04/30 02:29:04;;;;;;;10.78;8.13;;;;;;;9.41;73.30;98891.21;232617;1173;115785;-65
2021/04/30 02:34:07;;;;;;;9.13;8.13;;;;;;;9.21;73.65;98890.94;233925;1173;114884;-65
2021/04/30 02:39:09;;;;;;;10.50;8.50;;;;;;;9.08;73.30;98891.31;233388;1167;115653;-65
2021/04/30 02:44:12;;;;;;;10.17;8.83;;;;;;;9.00;73.65;98905.02;233115;1173;116587;-64
2021/04/30 02:49:17;;;;;;;10.08;7.65;;;;;;;8.82;73.28;98908.75;233457;1173;114941;-64
2021/04/30 02:54:20;;;;;;;11.10;7.68;;;;;;;8.71;73.49;98913.10;233881;1173;174387;-67
2021/04/30 02:59:23;;;;;;;10.28;8.78;;;;;;;8.73;73.86;98912.86;233539;1172;115922;-64
2021/04/30 03:04:27;;;;;;;9.03;8.17;;;;;;;8.72;74.39;98911.25;233543;1173;115809;-65
2021/04/30 03:09:30;;;;;;;10.10;8.93;;;;;;;8.69;73.86;98919.70;233437;1167;115141;-64
2021/04/30 03:14:34;;;;;;;12.55;9.45;;;;;;;8.64;74.51;98922.27;232487;1173;118573;-67
2021/04/30 03:19:38;;;;;;;10.55;9.60;;;;;;;8.63;74.17;98918.01;233443;1172;115516;-67
2021/04/30 03:24:43;;;;;;;11.63;8.47;;;;;;;8.58;74.08;98921.38;233201;1173;115324;-67
2021/04/30 03:29:46;;;;;;;11.75;8.10;;;;;;;8.51;74.03;98927.92;233228;1173;115299;-67
2021/04/30 03:34:52;;;;;;;10.03;8.23;;;;;;;8.52;74.29;98919.72;233393;1168;116067;-67
2021/04/30 03:39:56;;;;;;;10.75;8.25;;;;;;;8.55;74.27;98927.20;233445;1173;114824;-67
2021/04/30 03:44:59;;;;;;;17.23;10.48;;;;;;;8.88;74.68;98933.53;233824;1172;114807;-64
2021/04/30 03:50:03;;;;;;;7.63;6.57;;;;;;;9.56;74.21;98935.80;234355;1172;115904;-64
2021/04/30 03:55:07;;;;;;;9.63;8.50;;;;;;;10.28;73.17;98938.23;233290;1172;115245;-66
2021/04/30 04:00:11;;;;;;;8.85;7.65;;;;;;;10.94;72.41;98943.31;233630;1173;115919;-63
2021/04/30 04:05:15;;;;;;;9.90;8.20;;;;;;;10.92;71.87;98942.77;233926;1174;115293;-65
2021/04/30 04:10:20;;;;;;;10.18;6.73;;;;;;;10.84;72.14;98948.56;233254;1173;116037;-66
2021/04/30 04:15:24;;;;;;;9.93;8.30;;;;;;;10.80;71.78;98964.26;233723;1173;115789;-64
2021/04/30 04:20:27;;;;;;;9.13;8.10;;;;;;;10.84;71.88;98968.02;235278;1173;114745;-64
2021/04/30 04:25:32;;;;;;;8.53;6.80;;;;;;;10.97;71.31;98991.60;235313;1173;115266;-64
2021/04/30 04:30:36;;;;;;;8.40;6.68;;;;;;;10.99;71.71;98989.48;235322;1173;115544;-64
2021/04/30 04:35:39;;;;;;;10.43;8.03;;;;;;;10.78;71.31;98987.70;235356;1172;114865;-65
2021/04/30 04:40:43;;;;;;;8.27;7.20;;;;;;;10.71;71.23;98995.09;233938;1172;119575;-65
2021/04/30 04:45:47;;;;;;;8.33;6.10;;;;;;;10.85;71.84;98992.83;234301;1172;114981;-65
2021/04/30 04:50:51;;;;;;;8.30;7.60;;;;;;;10.96;71.60;99007.86;233054;1173;115240;-64
2021/04/30 04:56:00;;;;;;;10.03;7.05;;;;;;;11.05;70.92;99012.45;233706;1172;115759;-67
2021/04/30 05:01:04;;;;;;;13.60;7.10;;;;;;;11.26;71.11;99021.42;234348;1172;115950;-64
2021/04/30 05:06:08;;;;;;;7.93;6.10;;;;;;;12.75;69.25;99030.59;233287;1173;115606;-66
2021/04/30 05:11:12;;;;;;;7.98;7.05;;;;;;;16.01;65.34;99025.14;233075;1173;115788;-66
2021/04/30 05:16:15;;;;;;;8.93;7.10;;;;;;;17.73;62.85;99027.09;232958;1173;115484;-66
2021/04/30 05:21:19;;;;;;;8.70;5.97;;;;;;;18.87;60.87;99030.65;233537;1173;115060;-66
2021/04/30 05:26:24;;;;;;;12.90;6.75;;;;;;;21.21;57.11;99043.05;233071;1173;115641;-66
2021/04/30 05:31:28;;;;;;;7.68;6.88;;;;;;;23.27;53.71;99051.97;233230;1172;115852;-63
2021/04/30 05:36:32;;;;;;;10.13;5.15;;;;;;;23.50;51.86;99057.84;233346;1174;115645;-63
2021/04/30 05:41:34;;;;;;;7.20;6.50;;;;;;;22.05;50.84;99067.53;233349;1173;117217;-63
2021/04/30 05:46:37;;;;;;;10.65;8.48;;;;;;;22.25;49.95;99076.88;233183;1173;115942;-63
2021/04/30 05:51:41;;;;;;;8.48;7.68;;;;;;;20.83;50.00;99084.31;234213;1174;117123;-64
2021/04/30 05:56:43;;;;;;;9.33;8.20;;;;;;;19.28;51.14;99097.19;233076;1173;115753;-63
2021/04/30 06:01:46;;;;;;;10.75;7.90;;;;;;;18.81;51.03;99104.77;233639;1174;115231;-63
2021/04/30 06:06:51;;;;;;;9.85;6.20;;;;;;;17.53;52.06;99110.18;234722;1167;115043;-65
2021/04/30 06:11:54;;;;;;;9.45;8.55;;;;;;;16.49;53.16;99111.96;234904;1173;115295;-63
2021/04/30 06:16:57;;;;;;;5.57;5.00;;;;;;;15.96;54.02;99107.72;234613;1173;115276;-64
2021/04/30 06:22:00;;;;;;;10.30;8.43;;;;;;;15.43;54.09;99127.27;235157;1173;114978;-63
2021/04/30 06:27:04;;;;;;;9.25;8.43;;;;;;;14.93;55.20;99125.76;234596;1174;115735;-64
2021/04/30 06:32:07;;;;;;;8.80;7.90;;;;;;;14.63;55.65;99137.46;235407;1173;114971;-64
2021/04/30 06:37:10;;;;;;;10.53;8.60;;;;;;;14.23;55.54;99151.78;235131;1173;114883;-63
2021/04/30 06:42:12;;;;;;;8.25;6.00;;;;;;;14.01;55.83;99148.63;233985;1173;115011;-65
2021/04/30 06:47:17;;;;;;;13.90;10.18;;;;;;;13.95;56.08;99149.71;233703;1173;115771;-65
2021/04/30 06:52:19;;;;;;;9.85;9.03;;;;;;;14.04;57.05;99156.94;232889;1172;115634;-65
2021/04/30 06:57:23;;;;;;;8.93;8.05;;;;;;;14.47;56.32;99152.80;233310;1174;115480;-65
2021/04/30 07:02:25;;;;;;;9.53;8.63;;;;;;;15.33;55.23;99153.39;233908;1173;115618;-65
2021/04/30 07:07:27;;;;;;;9.40;8.45;;;;;;;16.25;54.62;99162.25;233144;1173;115480;-67
2021/04/30 07:12:31;;;;;;;11.40;9.58;;;;;;;16.96;54.04;99158.73;232824;1174;115774;-66
2021/04/30 07:17:34;;;;;;;18.43;9.30;;;;;;;17.37;53.21;99156.25;232748;1174;116069;-66
2021/04/30 07:22:37;;;;;;;10.30;8.48;;;;;;;17.56;51.98;99156.20;233087;1170;116456;-66
2021/04/30 07:27:40;;;;;;;8.53;7.70;;;;;;;17.79;51.61;99159.89;232961;1172;115849;-67
2021/04/30 07:32:43;;;;;;;9.18;8.28;;;;;;;17.91;50.35;99171.02;232523;1174;115564;-67
2021/04/30 07:38:07;;;;;;;8.88;7.68;;;;;;;17.85;50.13;99174.89;233061;1167;115156;-67
2021/04/30 07:43:12;;;;;;;7.50;6.68;;;;;;;17.88;49.63;99177.00;232765;1174;115975;-67
2021/04/30 07:48:14;;;;;;;7.68;6.98;;;;;;;17.75;48.93;99178.55;233066;1172;115361;-68
2021/04/30 07:53:17;;;;;;;8.98;7.25;;;;;;;17.73;48.63;99178.05;233167;1174;115025;-67
2021/04/30 07:58:25;;;;;;;8.60;7.18;;;;;;;17.73;48.66;99183.44;234156;1168;115228;-67
2021/04/30 08:03:29;;;;;;;9.67;8.67;;;;;;;17.77;48.11;99180.95;234009;1173;115586;-68
2021/04/30 08:08:33;;;;;;;7.48;6.75;;;;;;;17.80;47.86;99183.86;233779;1172;115198;-67
2021/04/30 08:13:36;;;;;;;5.10;4.57;;;;;;;17.69;47.71;99195.13;233767;1172;115002;-67
2021/04/30 08:18:40;;;;;;;5.15;4.70;;;;;;;17.51;47.21;99194.81;234847;1173;115336;-68
2021/04/30 08:23:43;;;;;;;8.73;7.78;;;;;;;17.40;47.61;99195.28;234339;1173;115603;-67
2021/04/30 08:28:47;;;;;;;7.48;5.20;;;;;;;17.52;47.76;99209.09;234780;1173;116170;-66
2021/04/30 08:33:50;;;;;;;8.50;7.70;;;;;;;17.48;46.92;99211.56;235164;1174;115446;-65
2021/04/30 08:38:53;;;;;;;12.08;8.65;;;;;;;17.41;47.16;99202.27;235294;1173;114953;-64
2021/04/30 08:43:56;;;;;;;5.13;4.58;;;;;;;17.71;47.76;99203.72;234332;1170;115692;-68
2021/04/30 08:49:11;;;;;;;9.23;8.33;;;;;;;17.86;46.75;99218.83;233472;1173;115816;-67
2021/04/30 08:54:16;;;;;;;8.45;7.58;;;;;;;18.02;46.61;99223.69;234678;1173;115785;-63
2021/04/30 08:59:26;;;;;;;6.38;5.78;;;;;;;18.36;46.69;99207.14;232586;1173;116162;-67
2021/04/30 09:04:34;;;;;;;8.65;7.43;;;;;;;18.50;45.47;99221.45;235260;1173;115665;-67
2021/04/30 09:09:55;;;;;;;7.33;6.55;;;;;;;17.86;44.91;99219.63;233074;1173;115569;-68
2021/04/30 09:14:59;;;;;;;9.70;8.88;;;;;;;17.47;44.82;99222.63;233657;1174;116442;-66
2021/04/30 09:20:04;;;;;;;9.53;8.40;;;;;;;16.96;43.67;99228.73;233419;1173;116220;-68
2021/04/30 09:25:16;;;;;;;5.70;5.18;;;;;;;16.73;44.73;99224.17;232682;1172;115929;-67
2021/04/30 09:30:27;;;;;;;9.48;8.50;;;;;;;16.31;44.36;99239.12;234124;1173;115002;-65
2021/04/30 09:35:31;;;;;;;9.33;7.90;;;;;;;16.61;45.12;99231.81;233530;1174;115561;-66
2021/04/30 09:40:35;;;;;;;9.40;7.00;;;;;;;16.50;45.15;99236.52;233511;1172;116038;-66
2021/04/30 09:45:40;;;;;;;8.03;7.38;;;;;;;16.58;45.34;99240.45;233172;1174;116782;-65
2021/04/30 09:50:46;;;;;;;7.30;6.57;;;;;;;17.04;45.57;99236.17;233549;1173;116739;-65
2021/04/30 09:55:55;;;;;;;7.23;6.35;;;;;;;17.31;44.74;99250.90;232918;1173;116599;-66
2021/04/30 10:00:59;;;;;;;7.15;6.28;;;;;;;16.90;44.32;99256.80;232765;1168;115430;-66
2021/04/30 10:06:17;;;;;;;6.83;5.93;;;;;;;16.74;44.06;99263.46;233450;1173;116263;-65
2021/04/30 10:11:32;;;;;;;3.25;3.05;;;;;;;16.87;44.58;99262.75;232627;1173;115852;-66
2021/04/30 10:16:34;;;;;;;6.98;6.43;;;;;;;16.52;43.86;99261.22;232837;1174;116175;-65
2021/04/30 10:21:41;;;;;;;7.25;6.58;;;;;;;16.98;44.12;99258.86;233452;1172;115479;-66
2021/04/30 10:26:44;;;;;;;7.13;6.13;;;;;;;17.09;44.09;99263.05;233989;1173;115173;-65
2021/04/30 10:31:51;;;;;;;6.77;5.60;;;;;;;16.93;43.64;99268.89;234331;1174;115632;-66
2021/04/30 10:37:02;;;;;;;5.70;5.05;;;;;;;17.00;44.19;99256.69;234577;1173;115794;-65
2021/04/30 10:42:17;;;;;;;8.73;7.83;;;;;;;16.95;43.47;99258.63;234181;1173;116131;-65
2021/04/30 10:47:20;;;;;;;8.98;5.65;;;;;;;16.88;43.88;99274.33;235307;1174;116128;-65
2021/04/30 10:52:24;;;;;;;4.93;4.53;;;;;;;17.24;44.03;99266.61;234604;1173;115904;-65
2021/04/30 10:57:27;;;;;;;7.55;6.83;;;;;;;17.70;43.74;99261.42;234638;1174;116110;-65
2021/04/30 11:07:40;;;;;;;7.95;7.25;;;;;;;17.61;42.57;99288.19;232923;1173;116238;-66
2021/04/30 11:12:53;;;;;;;6.70;6.20;;;;;;;17.28;42.69;99300.77;233069;1173;117212;-65
2021/04/30 11:18:03;;;;;;;8.10;7.07;;;;;;;17.21;42.76;99292.23;233191;1174;116100;-65
2021/04/30 11:23:22;;;;;;;6.53;6.00;;;;;;;17.39;42.43;99290.67;232680;1174;116619;-65
2021/04/30 11:28:45;;;;;;;5.78;5.23;;;;;;;17.17;42.32;99310.05;233729;1173;116226;-67
2021/04/30 11:34:15;;;;;;;6.77;6.17;;;;;;;16.88;42.40;99301.25;233335;1174;117146;-66
2021/04/30 11:39:25;;;;;;;8.85;7.40;;;;;;;16.74;42.76;99310.02;232931;1173;116083;-65
2021/04/30 11:44:29;;;;;;;10.97;8.43;;;;;;;16.75;42.41;99313.52;233880;1166;115741;-66
2021/04/30 11:49:39;;;;;;;8.03;7.27;;;;;;;16.82;41.98;99313.95;233289;1172;115933;-66
2021/04/30 11:54:41;;;;;;;8.20;7.50;;;;;;;16.54;41.99;99312.06;232850;1174;115671;-67
2021/04/30 11:59:45;;;;;;;6.08;5.63;;;;;;;16.20;42.07;99307.55;232826;1173;115469;-65
2021/04/30 12:05:04;;;;;;;12.63;6.48;;;;;;;16.13;43.40;99315.94;233756;1174;115749;-64
2021/04/30 12:10:25;;;;;;;8.67;7.90;;;;;;;16.33;42.78;99309.57;233147;1173;117210;-65
2021/04/30 12:15:34;;;;;;;8.88;7.95;;;;;;;16.44;42.87;99313.78;233087;1174;119270;-65
2021/04/30 12:20:38;;;;;;;6.30;5.70;;;;;;;16.25;42.78;99312.86;232711;1173;117152;-66
2021/04/30 12:25:46;;;;;;;8.33;7.53;;;;;;;16.34;42.53;99311.18;233591;1173;114879;-65
2021/04/30 12:30:55;;;;;;;6.58;5.83;;;;;;;16.28;42.38;99308.81;233806;1173;117999;-66
2021/04/30 12:36:01;;;;;;;6.88;6.25;;;;;;;16.47;42.61;99304.34;234442;1168;115494;-65
2021/04/30 12:41:10;;;;;;;5.95;5.45;;;;;;;16.43;43.18;99306.00;234523;1173;115832;-64
2021/04/30 12:46:29;;;;;;;7.45;6.85;;;;;;;16.38;42.68;99295.28;232804;1172;116029;-66
2021/04/30 12:51:36;;;;;;;6.40;5.80;;;;;;;16.23;42.36;99314.23;235140;1173;115827;-64
2021/04/30 12:56:48;;;;;;;6.48;5.98;;;;;;;16.09;42.54;99304.13;234722;1173;115531;-65
2021/04/30 13:02:12;;;;;;;7.83;6.95;;;;;;;16.08;42.44;99309.79;233538;1173;115344;-65
2021/04/30 13:07:16;;;;;;;9.38;7.38;;;;;;;16.02;42.82;99317.09;234385;1173;116324;-64
2021/04/30 13:12:19;;;;;;;7.23;6.58;;;;;;;15.96;42.47;99314.70;234120;1173;115881;-65
2021/04/30 13:17:26;;;;;;;7.45;6.75;;;;;;;15.98;42.95;99323.30;233254;1173;117965;-66
2021/04/30 13:22:29;;;;;;;7.37;6.57;;;;;;;15.78;42.59;99316.19;233289;1173;115693;-65
2021/04/30 13:27:49;;;;;;;7.05;6.35;;;;;;;15.60;43.03;99327.56;233381;1173;115728;-64
2021/04/30 13:33:20;;;;;;;7.13;6.43;;;;;;;15.47;43.24;99324.39;233206;1173;115835;-64
2021/04/30 13:38:28;;;;;;;8.08;7.30;;;;;;;15.47;43.25;99315.53;233068;1173;116035;-65
2021/04/30 13:43:36;;;;;;;10.68;7.33;;;;;;;15.37;43.68;99310.20;233115;1173;117105;-65
2021/04/30 13:48:42;;;;;;;9.73;7.63;;;;;;;15.25;43.73;99320.48;233359;1173;115693;-66
2021/04/30 13:53:46;;;;;;;8.65;7.95;;;;;;;15.35;43.54;99312.36;233782;1173;115535;-64
2021/04/30 13:58:53;;;;;;;6.83;6.23;;;;;;;15.43;43.66;99315.28;234156;1173;116074;-64
2021/04/30 14:03:57;;;;;;;6.78;5.98;;;;;;;15.43;43.42;99309.11;233303;1172;115138;-65
2021/04/30 14:09:00;;;;;;;8.18;6.53;;;;;;;15.48;44.30;99309.88;234458;1167;115380;-65
2021/04/30 14:14:04;;;;;;;7.60;6.93;;;;;;;15.34;43.40;99310.75;233303;1173;115873;-64
2021/04/30 14:19:08;;;;;;;8.10;7.13;;;;;;;15.32;44.46;99318.28;232781;1174;116750;-64
2021/04/30 14:24:12;;;;;;;7.80;7.00;;;;;;;15.40;44.75;99318.52;233684;1173;116446;-65
2021/04/30 14:29:15;;;;;;;9.13;8.23;;;;;;;15.39;44.48;99319.59;233197;1173;115505;-64
2021/04/30 14:34:18;;;;;;;8.10;6.80;;;;;;;15.32;44.47;99329.83;234183;1173;116126;-64
2021/04/30 14:39:21;;;;;;;7.45;6.85;;;;;;;15.18;44.83;99339.56;235137;1173;115793;-65
2021/04/30 14:44:26;;;;;;;7.00;6.17;;;;;;;15.01;45.03;99342.56;235203;1174;116011;-64
2021/04/30 14:49:30;;;;;;;7.27;6.63;;;;;;;14.76;45.40;99342.63;235244;1172;115208;-64
2021/04/30 14:54:39;;;;;;;11.50;7.03;;;;;;;14.65;45.30;99346.42;234985;1173;115355;-64
2021/04/30 14:59:45;;;;;;;7.65;6.95;;;;;;;14.54;46.28;99347.50;235276;1170;115830;-65
2021/04/30 15:04:49;;;;;;;7.55;6.45;;;;;;;14.48;45.83;99352.05;234067;1174;116149;-64
2021/04/30 15:09:55;;;;;;;7.60;6.75;;;;;;;14.29;46.41;99345.61;234349;1173;115786;-64
2021/04/30 15:14:58;;;;;;;7.40;6.30;;;;;;;14.07;45.97;99341.29;233923;1174;115350;-64
2021/04/30 15:20:02;;;;;;;8.58;6.45;;;;;;;13.93;46.51;99350.13;232968;1173;116614;-64
2021/04/30 15:25:07;;;;;;;8.15;6.40;;;;;;;13.69;47.07;99355.98;233734;1173;114870;-63
2021/04/30 15:30:14;;;;;;;6.35;5.78;;;;;;;13.67;47.23;99365.35;233025;1173;115646;-64
2021/04/30 15:35:17;;;;;;;7.63;6.75;;;;;;;13.52;47.53;99390.20;233212;1172;115664;-64
2021/04/30 15:40:24;;;;;;;6.58;5.98;;;;;;;13.32;48.02;99382.09;234130;1172;114765;-65
2021/04/30 15:45:28;;;;;;;8.73;6.63;;;;;;;13.29;48.02;99390.64;233476;1173;115053;-63
2021/04/30 15:50:31;;;;;;;7.10;6.07;;;;;;;13.20;48.19;99395.67;233741;1173;115738;-63
2021/04/30 15:55:35;;;;;;;7.18;6.48;;;;;;;12.99;48.96;99402.76;233223;1173;115973;-65
2021/04/30 16:00:38;;;;;;;6.90;5.75;;;;;;;12.87;49.13;99402.13;233772;1169;115667;-64
2021/04/30 16:05:40;;;;;;;12.13;6.37;;;;;;;12.77;49.21;99407.44;233195;1166;115403;-64
2021/04/30 16:10:44;;;;;;;6.27;5.70;;;;;;;12.67;49.36;99394.79;233663;1173;116264;-64
2021/04/30 16:15:50;;;;;;;5.67;5.23;;;;;;;12.56;49.35;99379.72;233218;1173;116522;-63
2021/04/30 16:20:53;;;;;;;6.20;5.60;;;;;;;12.53;49.74;99390.15;232992;1173;116385;-64
2021/04/30 16:26:00;;;;;;;5.90;5.15;;;;;;;12.51;50.13;99393.08;232988;1168;115813;-64
2021/04/30 16:31:06;;;;;;;6.40;5.80;;;;;;;12.40;50.51;99400.20;233289;1173;115802;-64
2021/04/30 16:36:10;;;;;;;9.68;6.28;;;;;;;12.28;50.96;99393.39;233627;1173;117373;-64
2021/04/30 16:41:13;;;;;;;6.73;5.15;;;;;;;12.04;51.63;99395.58;233089;1172;115938;-64
2021/04/30 16:46:20;;;;;;;9.35;6.53;;;;;;;11.93;52.03;99402.67;234242;1173;115995;-64
2021/04/30 16:51:28;;;;;;;7.00;5.33;;;;;;;11.85;51.67;99415.69;235148;1167;115685;-64
2021/04/30 16:56:32;;;;;;;6.87;5.47;;;;;;;11.69;52.23;99428.83;235202;1174;115732;-64
2021/04/30 17:01:35;;;;;;;6.23;5.63;;;;;;;11.45;52.45;99430.95;235154;1173;115903;-64
2021/04/30 17:06:38;;;;;;;6.68;5.85;;;;;;;11.24;52.80;99422.93;234136;1173;115570;-65
2021/04/30 17:11:41;;;;;;;7.18;6.05;;;;;;;11.03;53.20;99427.16;233483;1173;115453;-64
2021/04/30 17:16:44;;;;;;;6.37;5.40;;;;;;;10.92;53.22;99430.74;233567;1173;114900;-64
2021/04/30 17:21:47;;;;;;;6.10;5.50;;;;;;;10.81;53.87;99435.11;233496;1174;116420;-63
2021/04/30 17:26:51;;;;;;;7.20;6.37;;;;;;;10.71;53.64;99440.27;233593;1172;115681;-63
2021/04/30 17:31:54;;;;;;;9.05;6.23;;;;;;;10.59;53.92;99445.70;233764;1174;116082;-65
2021/04/30 17:36:57;;;;;;;7.40;6.67;;;;;;;10.39;54.44;99440.03;233301;1173;115916;-63
2021/04/30 17:42:01;;;;;;;6.23;5.63;;;;;;;10.19;54.77;99458.27;233056;1173;115576;-63
2021/04/30 17:47:05;;;;;;;6.73;5.50;;;;;;;9.98;55.29;99460.56;233333;1174;116256;-63
2021/04/30 17:52:09;;;;;;;5.55;4.40;;;;;;;9.77;55.93;99471.88;233424;1173;116081;-64
2021/04/30 17:57:13;;;;;;;5.85;5.25;;;;;;;9.61;56.47;99473.41;233561;1168;117683;-64
2021/04/30 18:02:17;;;;;;;4.88;4.13;;;;;;;9.51;56.05;99470.52;233498;1174;115892;-63
2021/04/30 18:07:20;;;;;;;5.63;4.87;;;;;;;9.40;56.29;99471.36;233575;1174;115003;-64
2021/04/30 18:12:26;;;;;;;7.35;4.48;;;;;;;9.23;57.21;99467.78;232692;1166;115782;-66
2021/04/30 18:17:29;;;;;;;4.53;3.85;;;;;;;9.08;57.60;99482.36;233381;1173;116667;-63
2021/04/30 18:22:33;;;;;;;5.38;4.88;;;;;;;8.92;57.07;99487.53;232721;1173;115080;-63
2021/04/30 18:27:37;;;;;;;5.05;4.60;;;;;;;8.80;57.30;99497.36;234383;1173;114850;-64
2021/04/30 18:32:41;;;;;;;5.45;4.75;;;;;;;8.68;57.31;99505.30;234870;1173;114670;-64
2021/04/30 18:37:48;;;;;;;5.50;3.43;;;;;;;8.57;58.14;99524.67;234984;1173;115490;-63
2021/04/30 18:42:52;;;;;;;3.25;2.95;;;;;;;8.33;58.22;99535.22;233421;1173;115458;-63
2021/04/30 18:47:56;;;;;;;4.50;4.10;;;;;;;8.17;57.82;99538.48;235418;1167;115321;-63
2021/04/30 18:52:59;;;;;;;8.78;6.23;;;;;;;8.03;59.12;99551.09;235473;1173;115455;-63
2021/04/30 18:58:06;;;;;;;9.58;6.78;;;;;;;7.93;58.39;99552.66;234364;1174;114481;-63
2021/04/30 19:03:10;;;;;;;11.05;9.15;;;;;;;7.87;58.92;99559.66;235230;1173;115583;-63
2021/04/30 19:08:14;;;;;;;9.67;6.93;;;;;;;7.76;59.28;99560.39;235198;1173;115938;-63
2021/04/30 19:13:17;;;;;;;8.68;6.08;;;;;;;7.60;59.44;99561.80;235252;1173;115097;-63
2021/04/30 19:18:23;;;;;;;5.28;3.83;;;;;;;7.46;60.69;99557.63;233816;1173;115182;-63
2021/04/30 19:23:28;;;;;;;4.63;3.93;;;;;;;7.34;60.58;99564.67;233107;1173;114664;-63
2021/04/30 19:28:33;;;;;;;9.45;4.85;;;;;;;7.18;61.32;99557.28;233172;1172;115285;-65
2021/04/30 19:33:37;;;;;;;5.95;4.75;;;;;;;6.96;61.31;99549.71;233324;1173;114515;-63
2021/04/30 19:38:41;;;;;;;4.23;3.83;;;;;;;6.79;62.06;99556.55;233169;1173;114914;-63
2021/04/30 19:43:44;;;;;;;6.83;4.63;;;;;;;6.58;61.81;99549.77;233999;1173;117237;-64
2021/04/30 19:48:48;;;;;;;7.25;4.65;;;;;;;6.50;63.14;99544.71;233917;1173;115613;-63
2021/04/30 19:53:53;;;;;;;8.93;6.13;;;;;;;6.45;62.52;99549.02;233447;1173;115404;-61
2021/04/30 19:58:56;;;;;;;19.47;12.37;;;;;;;6.46;62.78;99561.23;233092;1173;114934;-62
2021/04/30 20:04:00;;;;;;;10.55;7.95;;;;;;;6.28;63.30;99560.11;233114;1174;139593;-63
2021/04/30 20:09:04;;;;;;;5.67;4.07;;;;;;;6.04;63.54;99574.06;234402;1174;114981;-64
2021/04/30 20:14:08;;;;;;;6.38;5.18;;;;;;;5.84;63.92;99567.97;233694;1173;116146;-63
2021/04/30 20:19:11;;;;;;;5.60;5.00;;;;;;;5.81;64.57;99568.41;233824;1174;115913;-65
2021/04/30 20:24:14;;;;;;;4.30;3.15;;;;;;;5.74;65.02;99565.78;233867;1174;116118;-63
2021/04/30 20:29:17;;;;;;;7.60;6.13;;;;;;;5.73;65.21;99569.45;234060;1173;115006;-65
2021/04/30 20:34:19;;;;;;;10.05;6.50;;;;;;;5.77;65.50;99575.14;233634;1173;115033;-63
2021/04/30 20:39:22;;;;;;;5.08;3.98;;;;;;;5.68;65.53;99580.64;234175;1173;117109;-64
2021/04/30 20:44:25;;;;;;;6.47;4.57;;;;;;;5.42;65.62;99585.97;233079;1173;115771;-65
2021/04/30 20:49:28;;;;;;;7.80;4.95;;;;;;;5.22;66.15;99583.31;234273;1166;116612;-66
2021/04/30 20:54:32;;;;;;;9.38;6.70;;;;;;;5.18;66.00;99584.77;234711;1173;116452;-64
2021/04/30 20:59:36;;;;;;;5.70;5.13;;;;;;;5.14;66.48;99588.83;235225;1174;116491;-63
2021/04/30 21:04:40;;;;;;;8.63;6.20;;;;;;;5.19;66.78;99586.40;235239;1173;114953;-63
2021/04/30 21:09:45;;;;;;;25.28;11.90;;;;;;;5.25;67.06;99572.34;235234;1173;114594;-64
2021/04/30 21:14:49;;;;;;;15.55;9.33;;;;;;;5.26;67.15;99575.80;235155;1173;117203;-65
2021/04/30 21:19:54;;;;;;;10.68;7.20;;;;;;;5.11;67.26;99578.66;234683;1174;116148;-64
2021/04/30 21:24:58;;;;;;;13.07;7.93;;;;;;;5.00;67.08;99587.18;234016;1173;116629;-64
2021/04/30 21:30:01;;;;;;;11.48;8.20;;;;;;;4.96;67.93;99581.48;233567;1173;117069;-63
2021/04/30 21:35:05;;;;;;;20.80;14.88;;;;;;;4.99;68.19;99591.66;233265;1174;117177;-64
2021/04/30 21:40:09;;;;;;;17.88;13.78;;;;;;;5.02;68.14;99591.25;233491;1173;116478;-63
2021/04/30 21:45:12;;;;;;;12.05;9.95;;;;;;;4.96;67.88;99599.98;233469;1173;116177;-63
2021/04/30 21:50:16;;;;;;;5.43;4.28;;;;;;;4.89;68.53;99608.93;233137;1173;116540;-64
2021/04/30 21:55:20;;;;;;;11.63;8.33;;;;;;;4.81;68.89;99609.11;232910;1174;115755;-65
2021/04/30 22:00:27;;;;;;;11.70;7.98;;;;;;;4.83;69.68;99613.18;233273;1173;116207;-64
2021/04/30 22:05:31;;;;;;;15.38;10.18;;;;;;;4.79;69.48;99617.23;233177;1174;115302;-63
2021/04/30 22:10:35;;;;;;;12.85;9.05;;;;;;;4.79;69.71;99625.16;233433;1173;115695;-65
2021/04/30 22:15:44;;;;;;;14.35;8.53;;;;;;;4.86;69.45;99628.63;233480;1174;115491;-65
2021/04/30 22:20:46;;;;;;;6.43;4.20;;;;;;;4.86;70.18;99612.78;233104;1173;115757;-66
2021/04/30 22:25:50;;;;;;;5.13;4.70;;;;;;;4.77;70.23;99623.72;233948;1173;117165;-64
2021/04/30 22:30:54;;;;;;;17.30;10.43;;;;;;;4.74;69.77;99625.75;232810;1173;116597;-64
2021/04/30 22:35:57;;;;;;;13.15;10.43;;;;;;;4.80;70.51;99634.70;232683;1173;115879;-64
2021/04/30 22:41:01;;;;;;;16.08;10.73;;;;;;;4.79;70.85;99622.52;233882;1173;115920;-64
2021/04/30 22:46:05;;;;;;;9.10;8.03;;;;;;;4.83;70.04;99631.67;234336;1173;116973;-64
2021/04/30 22:51:12;;;;;;;13.28;10.35;;;;;;;4.73;70.22;99632.05;232919;1173;116079;-65
2021/04/30 22:56:16;;;;;;;;;;;;;;;4.67;71.03;99638.11;233923;1172;115710;-65
2021/04/30 23:01:18;;;;;;;18.98;12.78;;;;;;;4.56;71.08;99649.27;234546;1167;103004;-64
2021/04/30 23:06:21;;;;;;;22.88;15.55;;;;;;;4.55;70.80;99662.66;234583;1173;114821;-63
2021/04/30 23:11:24;;;;;;;19.00;12.20;;;;;;;4.59;70.26;99664.69;234905;1172;115712;-64
2021/04/30 23:16:27;;;;;;;22.25;13.90;;;;;;;4.60;71.32;99681.34;235251;1173;115209;-64
2021/04/30 23:21:30;;;;;;;18.88;13.55;;;;;;;4.68;71.66;99678.53;235342;1172;115526;-65
2021/04/30 23:26:33;;;;;;;19.70;13.45;;;;;;;4.69;70.83;99670.41;233599;1172;117499;-65